sensor_id;sensor_type;location;lat;lon;timestamp;P1;durP1;ratioP1;P2;durP2;ratioP2
69748;SDS011;57019;52.354;6.584;2022-07-29T00:00:34;4.87;;;1.33;;
69748;SDS011;57019;52.354;6.584;2022-07-29T00:03:00;4.03;;;1.13;;
69748;SDS011;57019;52.354;6.584;2022-07-29T00:05:25;3.67;;;1.00;;
69748;SDS011;57019;52.354;6.584;2022-07-29T00:07:50;5.13;;;1.50;;
69748;SDS011;57019;52.354;6.584;2022-07-29T00:10:16;4.93;;;1.30;;
69748;SDS011;57019;52.354;6.584;2022-07-29T00:12:41;4.27;;;1.30;;
69748;SDS011;57019;52.354;6.584;2022-07-29T00:15:06;5.60;;;1.43;;
69748;SDS011;57019;52.354;6.584;2022-07-29T00:17:32;6.00;;;1.42;;
69748;SDS011;57019;52.354;6.584;2022-07-29T00:19:58;10.60;;;1.70;;
69748;SDS011;57019;52.354;6.584;2022-07-29T00:22:24;4.97;;;1.40;;
69748;SDS011;57019;52.354;6.584;2022-07-29T00:24:49;8.43;;;1.57;;
69748;SDS011;57019;52.354;6.584;2022-07-29T00:27:15;4.40;;;1.35;;
69748;SDS011;57019;52.354;6.584;2022-07-29T00:29:41;4.93;;;1.40;;
69748;SDS011;57019;52.354;6.584;2022-07-29T00:32:06;6.67;;;1.60;;
69748;SDS011;57019;52.354;6.584;2022-07-29T00:34:32;5.17;;;1.50;;
69748;SDS011;57019;52.354;6.584;2022-07-29T00:37:16;6.05;;;1.45;;
69748;SDS011;57019;52.354;6.584;2022-07-29T00:39:41;4.40;;;1.33;;
69748;SDS011;57019;52.354;6.584;2022-07-29T00:42:07;5.83;;;1.40;;
69748;SDS011;57019;52.354;6.584;2022-07-29T00:44:39;5.38;;;1.48;;
69748;SDS011;57019;52.354;6.584;2022-07-29T00:47:05;5.93;;;1.80;;
69748;SDS011;57019;52.354;6.584;2022-07-29T00:49:32;5.35;;;1.23;;
69748;SDS011;57019;52.354;6.584;2022-07-29T00:51:58;4.83;;;1.43;;
69748;SDS011;57019;52.354;6.584;2022-07-29T00:54:26;4.78;;;1.30;;
69748;SDS011;57019;52.354;6.584;2022-07-29T00:56:51;4.97;;;1.52;;
69748;SDS011;57019;52.354;6.584;2022-07-29T00:59:17;4.90;;;1.30;;
69748;SDS011;57019;52.354;6.584;2022-07-29T01:01:42;5.50;;;1.40;;
69748;SDS011;57019;52.354;6.584;2022-07-29T01:04:08;5.27;;;1.63;;
69748;SDS011;57019;52.354;6.584;2022-07-29T01:06:33;4.78;;;1.33;;
69748;SDS011;57019;52.354;6.584;2022-07-29T01:08:59;4.50;;;1.33;;
69748;SDS011;57019;52.354;6.584;2022-07-29T01:11:25;4.78;;;1.45;;
69748;SDS011;57019;52.354;6.584;2022-07-29T01:13:50;5.07;;;1.30;;
69748;SDS011;57019;52.354;6.584;2022-07-29T01:16:25;5.43;;;1.45;;
69748;SDS011;57019;52.354;6.584;2022-07-29T01:19:00;4.90;;;1.20;;
69748;SDS011;57019;52.354;6.584;2022-07-29T01:21:44;4.97;;;1.40;;
69748;SDS011;57019;52.354;6.584;2022-07-29T01:24:22;4.43;;;1.40;;
69748;SDS011;57019;52.354;6.584;2022-07-29T01:30:07;5.65;;;1.50;;
69748;SDS011;57019;52.354;6.584;2022-07-29T01:32:33;4.95;;;1.50;;
69748;SDS011;57019;52.354;6.584;2022-07-29T01:35:03;5.32;;;1.30;;
69748;SDS011;57019;52.354;6.584;2022-07-29T01:37:36;5.47;;;1.60;;
69748;SDS011;57019;52.354;6.584;2022-07-29T01:40:08;5.07;;;1.50;;
69748;SDS011;57019;52.354;6.584;2022-07-29T01:42:44;4.90;;;1.20;;
69748;SDS011;57019;52.354;6.584;2022-07-29T01:45:17;5.82;;;1.40;;
69748;SDS011;57019;52.354;6.584;2022-07-29T01:50:21;4.67;;;1.30;;
69748;SDS011;57019;52.354;6.584;2022-07-29T01:52:54;4.95;;;1.40;;
69748;SDS011;57019;52.354;6.584;2022-07-29T01:55:25;6.43;;;1.30;;
69748;SDS011;57019;52.354;6.584;2022-07-29T01:57:54;4.63;;;1.30;;
69748;SDS011;57019;52.354;6.584;2022-07-29T02:00:22;3.80;;;1.15;;
69748;SDS011;57019;52.354;6.584;2022-07-29T02:02:48;4.30;;;1.10;;
69748;SDS011;57019;52.354;6.584;2022-07-29T02:05:17;4.68;;;1.30;;
69748;SDS011;57019;52.354;6.584;2022-07-29T02:07:46;4.50;;;1.35;;
69748;SDS011;57019;52.354;6.584;2022-07-29T02:10:12;4.95;;;1.40;;
69748;SDS011;57019;52.354;6.584;2022-07-29T02:12:40;4.72;;;1.30;;
69748;SDS011;57019;52.354;6.584;2022-07-29T02:15:08;4.70;;;1.40;;
69748;SDS011;57019;52.354;6.584;2022-07-29T02:17:42;5.45;;;1.30;;
69748;SDS011;57019;52.354;6.584;2022-07-29T02:20:10;5.57;;;1.42;;
69748;SDS011;57019;52.354;6.584;2022-07-29T02:22:38;4.93;;;1.27;;
69748;SDS011;57019;52.354;6.584;2022-07-29T02:25:05;4.88;;;1.40;;
69748;SDS011;57019;52.354;6.584;2022-07-29T02:27:33;4.20;;;1.30;;
69748;SDS011;57019;52.354;6.584;2022-07-29T02:30:00;5.93;;;1.55;;
69748;SDS011;57019;52.354;6.584;2022-07-29T02:32:27;5.47;;;1.40;;
69748;SDS011;57019;52.354;6.584;2022-07-29T02:34:54;5.55;;;1.40;;
69748;SDS011;57019;52.354;6.584;2022-07-29T02:37:21;5.80;;;1.70;;
69748;SDS011;57019;52.354;6.584;2022-07-29T02:39:48;4.57;;;1.20;;
69748;SDS011;57019;52.354;6.584;2022-07-29T02:42:18;4.10;;;1.30;;
69748;SDS011;57019;52.354;6.584;2022-07-29T02:44:46;4.38;;;1.25;;
69748;SDS011;57019;52.354;6.584;2022-07-29T02:50:06;4.90;;;1.38;;
69748;SDS011;57019;52.354;6.584;2022-07-29T02:52:40;4.32;;;1.30;;
69748;SDS011;57019;52.354;6.584;2022-07-29T02:58:02;4.53;;;1.17;;
69748;SDS011;57019;52.354;6.584;2022-07-29T03:00:34;5.00;;;1.27;;
69748;SDS011;57019;52.354;6.584;2022-07-29T03:03:03;5.15;;;1.40;;
69748;SDS011;57019;52.354;6.584;2022-07-29T03:05:33;4.40;;;1.20;;
69748;SDS011;57019;52.354;6.584;2022-07-29T03:08:01;4.78;;;1.27;;
69748;SDS011;57019;52.354;6.584;2022-07-29T03:10:28;4.73;;;1.20;;
69748;SDS011;57019;52.354;6.584;2022-07-29T03:12:55;4.40;;;1.30;;
69748;SDS011;57019;52.354;6.584;2022-07-29T03:15:21;4.57;;;1.50;;
69748;SDS011;57019;52.354;6.584;2022-07-29T03:17:48;4.57;;;1.20;;
69748;SDS011;57019;52.354;6.584;2022-07-29T03:20:14;5.00;;;1.30;;
69748;SDS011;57019;52.354;6.584;2022-07-29T03:22:40;4.73;;;1.30;;
69748;SDS011;57019;52.354;6.584;2022-07-29T03:25:15;4.72;;;1.20;;
69748;SDS011;57019;52.354;6.584;2022-07-29T03:27:43;4.60;;;1.30;;
69748;SDS011;57019;52.354;6.584;2022-07-29T03:30:09;4.55;;;1.30;;
69748;SDS011;57019;52.354;6.584;2022-07-29T03:32:35;5.32;;;1.33;;
69748;SDS011;57019;52.354;6.584;2022-07-29T03:35:01;5.13;;;1.17;;
69748;SDS011;57019;52.354;6.584;2022-07-29T03:37:28;4.35;;;1.20;;
69748;SDS011;57019;52.354;6.584;2022-07-29T03:39:55;4.80;;;1.27;;
69748;SDS011;57019;52.354;6.584;2022-07-29T03:42:23;4.82;;;1.15;;
69748;SDS011;57019;52.354;6.584;2022-07-29T03:44:50;6.70;;;1.20;;
69748;SDS011;57019;52.354;6.584;2022-07-29T03:47:18;5.32;;;1.40;;
69748;SDS011;57019;52.354;6.584;2022-07-29T03:49:47;3.75;;;1.15;;
69748;SDS011;57019;52.354;6.584;2022-07-29T03:52:17;6.75;;;1.30;;
69748;SDS011;57019;52.354;6.584;2022-07-29T03:54:42;4.30;;;1.17;;
69748;SDS011;57019;52.354;6.584;2022-07-29T03:57:08;4.13;;;1.13;;
69748;SDS011;57019;52.354;6.584;2022-07-29T03:59:36;4.75;;;1.30;;
69748;SDS011;57019;52.354;6.584;2022-07-29T04:02:03;5.53;;;1.13;;
69748;SDS011;57019;52.354;6.584;2022-07-29T04:04:32;6.30;;;1.40;;
69748;SDS011;57019;52.354;6.584;2022-07-29T04:06:58;4.50;;;1.27;;
69748;SDS011;57019;52.354;6.584;2022-07-29T04:09:24;4.60;;;1.10;;
69748;SDS011;57019;52.354;6.584;2022-07-29T04:11:49;4.50;;;1.20;;
69748;SDS011;57019;52.354;6.584;2022-07-29T04:14:15;4.78;;;1.15;;
69748;SDS011;57019;52.354;6.584;2022-07-29T04:16:40;5.00;;;1.30;;
69748;SDS011;57019;52.354;6.584;2022-07-29T04:19:05;5.07;;;1.20;;
69748;SDS011;57019;52.354;6.584;2022-07-29T04:21:31;5.30;;;1.10;;
69748;SDS011;57019;52.354;6.584;2022-07-29T04:24:02;5.03;;;1.30;;
69748;SDS011;57019;52.354;6.584;2022-07-29T04:26:27;4.43;;;1.37;;
69748;SDS011;57019;52.354;6.584;2022-07-29T04:28:52;4.60;;;1.30;;
69748;SDS011;57019;52.354;6.584;2022-07-29T04:31:18;3.77;;;1.20;;
69748;SDS011;57019;52.354;6.584;2022-07-29T04:33:43;4.00;;;1.10;;
69748;SDS011;57019;52.354;6.584;2022-07-29T04:36:08;4.90;;;1.23;;
69748;SDS011;57019;52.354;6.584;2022-07-29T04:38:35;4.53;;;1.38;;
69748;SDS011;57019;52.354;6.584;2022-07-29T04:41:01;5.07;;;1.30;;
69748;SDS011;57019;52.354;6.584;2022-07-29T04:43:26;4.57;;;1.10;;
69748;SDS011;57019;52.354;6.584;2022-07-29T04:45:51;5.23;;;1.30;;
69748;SDS011;57019;52.354;6.584;2022-07-29T04:48:17;4.53;;;1.40;;
69748;SDS011;57019;52.354;6.584;2022-07-29T04:50:42;4.07;;;1.17;;
69748;SDS011;57019;52.354;6.584;2022-07-29T04:53:09;5.63;;;1.30;;
69748;SDS011;57019;52.354;6.584;2022-07-29T04:55:34;4.90;;;1.47;;
69748;SDS011;57019;52.354;6.584;2022-07-29T04:58:01;4.88;;;1.20;;
69748;SDS011;57019;52.354;6.584;2022-07-29T05:00:26;5.27;;;1.40;;
69748;SDS011;57019;52.354;6.584;2022-07-29T05:02:52;4.50;;;1.27;;
69748;SDS011;57019;52.354;6.584;2022-07-29T05:05:17;5.00;;;1.30;;
69748;SDS011;57019;52.354;6.584;2022-07-29T05:07:42;4.53;;;1.20;;
69748;SDS011;57019;52.354;6.584;2022-07-29T05:10:08;5.10;;;1.40;;
69748;SDS011;57019;52.354;6.584;2022-07-29T05:12:34;4.60;;;1.30;;
69748;SDS011;57019;52.354;6.584;2022-07-29T05:14:59;6.03;;;1.70;;
69748;SDS011;57019;52.354;6.584;2022-07-29T05:17:24;8.77;;;2.20;;
69748;SDS011;57019;52.354;6.584;2022-07-29T05:19:50;8.97;;;2.27;;
69748;SDS011;57019;52.354;6.584;2022-07-29T05:22:16;13.73;;;2.50;;
69748;SDS011;57019;52.354;6.584;2022-07-29T05:24:43;9.00;;;1.92;;
69748;SDS011;57019;52.354;6.584;2022-07-29T05:27:08;11.10;;;2.43;;
69748;SDS011;57019;52.354;6.584;2022-07-29T05:29:34;8.52;;;2.00;;
69748;SDS011;57019;52.354;6.584;2022-07-29T05:32:00;9.03;;;1.90;;
69748;SDS011;57019;52.354;6.584;2022-07-29T05:34:25;6.90;;;1.60;;
69748;SDS011;57019;52.354;6.584;2022-07-29T05:36:50;6.33;;;1.60;;
69748;SDS011;57019;52.354;6.584;2022-07-29T05:39:16;6.87;;;1.77;;
69748;SDS011;57019;52.354;6.584;2022-07-29T05:41:41;7.80;;;1.63;;
69748;SDS011;57019;52.354;6.584;2022-07-29T05:44:06;8.13;;;1.67;;
69748;SDS011;57019;52.354;6.584;2022-07-29T05:46:32;7.83;;;1.73;;
69748;SDS011;57019;52.354;6.584;2022-07-29T05:48:57;6.97;;;1.70;;
69748;SDS011;57019;52.354;6.584;2022-07-29T05:51:22;7.13;;;1.80;;
69748;SDS011;57019;52.354;6.584;2022-07-29T05:53:48;7.57;;;1.70;;
69748;SDS011;57019;52.354;6.584;2022-07-29T05:56:13;8.47;;;1.80;;
69748;SDS011;57019;52.354;6.584;2022-07-29T05:58:38;6.70;;;1.70;;
69748;SDS011;57019;52.354;6.584;2022-07-29T06:01:04;6.53;;;1.50;;
69748;SDS011;57019;52.354;6.584;2022-07-29T06:03:29;7.00;;;1.80;;
69748;SDS011;57019;52.354;6.584;2022-07-29T06:05:55;8.20;;;1.80;;
69748;SDS011;57019;52.354;6.584;2022-07-29T06:08:20;6.43;;;1.70;;
69748;SDS011;57019;52.354;6.584;2022-07-29T06:10:46;7.73;;;1.50;;
69748;SDS011;57019;52.354;6.584;2022-07-29T06:13:11;6.53;;;1.70;;
69748;SDS011;57019;52.354;6.584;2022-07-29T06:15:37;6.20;;;1.60;;
69748;SDS011;57019;52.354;6.584;2022-07-29T06:18:02;7.67;;;1.57;;
69748;SDS011;57019;52.354;6.584;2022-07-29T06:20:28;7.13;;;1.70;;
69748;SDS011;57019;52.354;6.584;2022-07-29T06:22:57;5.13;;;1.42;;
69748;SDS011;57019;52.354;6.584;2022-07-29T06:25:23;5.28;;;1.55;;
69748;SDS011;57019;52.354;6.584;2022-07-29T06:27:48;7.93;;;1.73;;
69748;SDS011;57019;52.354;6.584;2022-07-29T06:30:13;6.80;;;1.60;;
69748;SDS011;57019;52.354;6.584;2022-07-29T06:32:39;5.53;;;1.60;;
69748;SDS011;57019;52.354;6.584;2022-07-29T06:35:04;6.63;;;1.80;;
69748;SDS011;57019;52.354;6.584;2022-07-29T06:37:30;5.63;;;1.30;;
69748;SDS011;57019;52.354;6.584;2022-07-29T06:39:55;6.90;;;1.97;;
69748;SDS011;57019;52.354;6.584;2022-07-29T06:42:43;6.43;;;1.60;;
69748;SDS011;57019;52.354;6.584;2022-07-29T06:45:10;5.72;;;1.60;;
69748;SDS011;57019;52.354;6.584;2022-07-29T06:47:36;5.60;;;1.40;;
69748;SDS011;57019;52.354;6.584;2022-07-29T06:50:01;6.80;;;1.43;;
69748;SDS011;57019;52.354;6.584;2022-07-29T06:52:26;5.97;;;1.50;;
69748;SDS011;57019;52.354;6.584;2022-07-29T06:54:52;6.87;;;1.50;;
69748;SDS011;57019;52.354;6.584;2022-07-29T06:57:17;5.77;;;1.43;;
69748;SDS011;57019;52.354;6.584;2022-07-29T06:59:42;5.97;;;1.60;;
69748;SDS011;57019;52.354;6.584;2022-07-29T07:02:08;6.07;;;1.60;;
69748;SDS011;57019;52.354;6.584;2022-07-29T07:04:33;6.70;;;1.50;;
69748;SDS011;57019;52.354;6.584;2022-07-29T07:07:00;6.60;;;1.60;;
69748;SDS011;57019;52.354;6.584;2022-07-29T07:09:25;4.80;;;1.40;;
69748;SDS011;57019;52.354;6.584;2022-07-29T07:11:50;6.40;;;1.80;;
69748;SDS011;57019;52.354;6.584;2022-07-29T07:14:16;6.40;;;1.50;;
69748;SDS011;57019;52.354;6.584;2022-07-29T07:16:41;5.95;;;1.67;;
69748;SDS011;57019;52.354;6.584;2022-07-29T07:19:06;6.20;;;1.57;;
69748;SDS011;57019;52.354;6.584;2022-07-29T07:21:32;5.10;;;1.50;;
69748;SDS011;57019;52.354;6.584;2022-07-29T07:23:58;7.15;;;1.60;;
69748;SDS011;57019;52.354;6.584;2022-07-29T07:26:24;5.53;;;1.77;;
69748;SDS011;57019;52.354;6.584;2022-07-29T07:28:50;5.70;;;1.43;;
69748;SDS011;57019;52.354;6.584;2022-07-29T07:31:15;5.07;;;1.43;;
69748;SDS011;57019;52.354;6.584;2022-07-29T07:33:40;6.40;;;1.90;;
69748;SDS011;57019;52.354;6.584;2022-07-29T07:36:06;8.70;;;1.80;;
69748;SDS011;57019;52.354;6.584;2022-07-29T07:38:31;7.43;;;2.03;;
69748;SDS011;57019;52.354;6.584;2022-07-29T07:40:56;6.17;;;1.60;;
69748;SDS011;57019;52.354;6.584;2022-07-29T07:43:22;5.87;;;1.77;;
69748;SDS011;57019;52.354;6.584;2022-07-29T07:45:47;5.67;;;1.50;;
69748;SDS011;57019;52.354;6.584;2022-07-29T07:48:12;5.77;;;1.63;;
69748;SDS011;57019;52.354;6.584;2022-07-29T07:50:38;7.15;;;1.85;;
69748;SDS011;57019;52.354;6.584;2022-07-29T07:53:03;8.47;;;2.07;;
69748;SDS011;57019;52.354;6.584;2022-07-29T07:55:29;6.77;;;1.80;;
69748;SDS011;57019;52.354;6.584;2022-07-29T07:57:54;5.27;;;1.67;;
69748;SDS011;57019;52.354;6.584;2022-07-29T08:00:20;5.93;;;1.70;;
69748;SDS011;57019;52.354;6.584;2022-07-29T08:02:46;5.50;;;1.50;;
69748;SDS011;57019;52.354;6.584;2022-07-29T08:05:11;5.60;;;1.73;;
69748;SDS011;57019;52.354;6.584;2022-07-29T08:07:41;6.45;;;1.60;;
69748;SDS011;57019;52.354;6.584;2022-07-29T08:10:07;4.70;;;1.60;;
69748;SDS011;57019;52.354;6.584;2022-07-29T08:12:32;6.45;;;1.80;;
69748;SDS011;57019;52.354;6.584;2022-07-29T08:14:58;7.40;;;1.80;;
69748;SDS011;57019;52.354;6.584;2022-07-29T08:17:23;5.53;;;1.70;;
69748;SDS011;57019;52.354;6.584;2022-07-29T08:19:48;5.17;;;1.57;;
69748;SDS011;57019;52.354;6.584;2022-07-29T08:22:14;5.82;;;1.70;;
69748;SDS011;57019;52.354;6.584;2022-07-29T08:24:40;5.07;;;1.67;;
69748;SDS011;57019;52.354;6.584;2022-07-29T08:27:09;6.45;;;2.05;;
69748;SDS011;57019;52.354;6.584;2022-07-29T08:29:37;5.60;;;1.75;;
69748;SDS011;57019;52.354;6.584;2022-07-29T08:32:04;5.07;;;1.70;;
69748;SDS011;57019;52.354;6.584;2022-07-29T08:34:29;6.43;;;1.77;;
69748;SDS011;57019;52.354;6.584;2022-07-29T08:36:55;6.43;;;1.90;;
69748;SDS011;57019;52.354;6.584;2022-07-29T08:39:22;6.63;;;1.90;;
69748;SDS011;57019;52.354;6.584;2022-07-29T08:41:48;6.43;;;1.85;;
69748;SDS011;57019;52.354;6.584;2022-07-29T08:44:15;8.20;;;1.70;;
69748;SDS011;57019;52.354;6.584;2022-07-29T08:46:42;6.35;;;1.67;;
69748;SDS011;57019;52.354;6.584;2022-07-29T08:49:08;5.53;;;1.63;;
69748;SDS011;57019;52.354;6.584;2022-07-29T08:51:33;5.77;;;1.60;;
69748;SDS011;57019;52.354;6.584;2022-07-29T08:54:00;7.25;;;1.90;;
69748;SDS011;57019;52.354;6.584;2022-07-29T08:56:26;5.97;;;1.88;;
69748;SDS011;57019;52.354;6.584;2022-07-29T08:58:52;6.23;;;1.57;;
69748;SDS011;57019;52.354;6.584;2022-07-29T09:01:22;5.82;;;1.70;;
69748;SDS011;57019;52.354;6.584;2022-07-29T09:03:50;5.82;;;1.60;;
69748;SDS011;57019;52.354;6.584;2022-07-29T09:06:19;9.05;;;1.90;;
69748;SDS011;57019;52.354;6.584;2022-07-29T09:08:46;5.63;;;1.65;;
69748;SDS011;57019;52.354;6.584;2022-07-29T09:11:12;6.40;;;1.77;;
69748;SDS011;57019;52.354;6.584;2022-07-29T09:13:46;6.43;;;1.70;;
69748;SDS011;57019;52.354;6.584;2022-07-29T09:16:12;5.53;;;1.80;;
69748;SDS011;57019;52.354;6.584;2022-07-29T09:18:38;5.27;;;1.83;;
69748;SDS011;57019;52.354;6.584;2022-07-29T09:21:06;5.95;;;1.70;;
69748;SDS011;57019;52.354;6.584;2022-07-29T09:26:46;6.70;;;1.70;;
69748;SDS011;57019;52.354;6.584;2022-07-29T09:29:16;4.73;;;1.70;;
69748;SDS011;57019;52.354;6.584;2022-07-29T09:31:42;5.15;;;1.60;;
69748;SDS011;57019;52.354;6.584;2022-07-29T09:34:10;5.68;;;1.80;;
69748;SDS011;57019;52.354;6.584;2022-07-29T09:36:45;5.20;;;1.73;;
69748;SDS011;57019;52.354;6.584;2022-07-29T09:39:12;5.53;;;1.80;;
69748;SDS011;57019;52.354;6.584;2022-07-29T09:44:18;5.18;;;1.80;;
69748;SDS011;57019;52.354;6.584;2022-07-29T09:46:54;5.97;;;1.70;;
69748;SDS011;57019;52.354;6.584;2022-07-29T09:49:21;5.80;;;1.70;;
69748;SDS011;57019;52.354;6.584;2022-07-29T09:51:46;6.03;;;1.80;;
69748;SDS011;57019;52.354;6.584;2022-07-29T09:54:25;5.10;;;1.80;;
69748;SDS011;57019;52.354;6.584;2022-07-29T09:56:51;5.40;;;1.70;;
69748;SDS011;57019;52.354;6.584;2022-07-29T09:59:17;6.00;;;1.80;;
69748;SDS011;57019;52.354;6.584;2022-07-29T10:01:45;5.63;;;1.90;;
69748;SDS011;57019;52.354;6.584;2022-07-29T10:04:11;5.93;;;1.70;;
69748;SDS011;57019;52.354;6.584;2022-07-29T10:06:54;5.67;;;1.83;;
69748;SDS011;57019;52.354;6.584;2022-07-29T10:09:20;6.43;;;1.93;;
69748;SDS011;57019;52.354;6.584;2022-07-29T10:12:01;5.30;;;1.65;;
69748;SDS011;57019;52.354;6.584;2022-07-29T10:14:31;6.90;;;1.90;;
69748;SDS011;57019;52.354;6.584;2022-07-29T10:16:59;6.53;;;1.85;;
69748;SDS011;57019;52.354;6.584;2022-07-29T10:19:27;6.32;;;1.92;;
69748;SDS011;57019;52.354;6.584;2022-07-29T10:21:53;5.45;;;1.67;;
69748;SDS011;57019;52.354;6.584;2022-07-29T10:24:19;6.03;;;1.80;;
69748;SDS011;57019;52.354;6.584;2022-07-29T10:26:45;5.53;;;1.73;;
69748;SDS011;57019;52.354;6.584;2022-07-29T10:29:12;6.10;;;1.80;;
69748;SDS011;57019;52.354;6.584;2022-07-29T10:31:48;6.47;;;2.00;;
69748;SDS011;57019;52.354;6.584;2022-07-29T10:40:22;5.73;;;1.70;;
69748;SDS011;57019;52.354;6.584;2022-07-29T10:43:36;6.43;;;1.80;;
69748;SDS011;57019;52.354;6.584;2022-07-29T10:46:05;5.63;;;1.80;;
69748;SDS011;57019;52.354;6.584;2022-07-29T10:48:31;6.80;;;2.10;;
69748;SDS011;57019;52.354;6.584;2022-07-29T10:50:58;17.90;;;3.10;;
69748;SDS011;57019;52.354;6.584;2022-07-29T10:53:45;16.92;;;4.10;;
69748;SDS011;57019;52.354;6.584;2022-07-29T10:56:27;16.40;;;3.75;;
69748;SDS011;57019;52.354;6.584;2022-07-29T11:01:49;24.00;;;4.70;;
69748;SDS011;57019;52.354;6.584;2022-07-29T11:04:16;21.45;;;4.88;;
69748;SDS011;57019;52.354;6.584;2022-07-29T11:07:07;18.02;;;4.43;;
69748;SDS011;57019;52.354;6.584;2022-07-29T11:15:04;17.17;;;4.33;;
69748;SDS011;57019;52.354;6.584;2022-07-29T11:31:31;13.70;;;3.70;;
69748;SDS011;57019;52.354;6.584;2022-07-29T11:34:16;14.88;;;3.70;;
69748;SDS011;57019;52.354;6.584;2022-07-29T11:44:55;13.87;;;3.53;;
69748;SDS011;57019;52.354;6.584;2022-07-29T11:47:42;13.90;;;3.42;;
69748;SDS011;57019;52.354;6.584;2022-07-29T11:50:35;15.05;;;3.30;;
69748;SDS011;57019;52.354;6.584;2022-07-29T11:53:03;12.20;;;3.38;;
69748;SDS011;57019;52.354;6.584;2022-07-29T11:55:36;13.43;;;3.72;;
69748;SDS011;57019;52.354;6.584;2022-07-29T11:58:03;15.37;;;3.43;;
69748;SDS011;57019;52.354;6.584;2022-07-29T12:02:54;15.10;;;3.50;;
69748;SDS011;57019;52.354;6.584;2022-07-29T12:05:21;10.60;;;3.03;;
69748;SDS011;57019;52.354;6.584;2022-07-29T12:07:47;11.10;;;3.05;;
69748;SDS011;57019;52.354;6.584;2022-07-29T12:10:13;12.27;;;2.90;;
69748;SDS011;57019;52.354;6.584;2022-07-29T12:12:39;13.43;;;3.30;;
69748;SDS011;57019;52.354;6.584;2022-07-29T12:15:10;9.20;;;2.80;;
69748;SDS011;57019;52.354;6.584;2022-07-29T12:17:36;10.68;;;2.75;;
69748;SDS011;57019;52.354;6.584;2022-07-29T12:20:04;8.80;;;2.60;;
69748;SDS011;57019;52.354;6.584;2022-07-29T12:22:34;9.47;;;2.63;;
69748;SDS011;57019;52.354;6.584;2022-07-29T12:25:09;8.02;;;2.47;;
69748;SDS011;57019;52.354;6.584;2022-07-29T12:27:37;11.50;;;2.80;;
69748;SDS011;57019;52.354;6.584;2022-07-29T12:30:07;9.20;;;2.80;;
69748;SDS011;57019;52.354;6.584;2022-07-29T12:37:41;10.05;;;2.50;;
69748;SDS011;57019;52.354;6.584;2022-07-29T12:40:10;10.07;;;2.63;;
69748;SDS011;57019;52.354;6.584;2022-07-29T12:42:38;7.05;;;2.35;;
69748;SDS011;57019;52.354;6.584;2022-07-29T12:45:04;12.73;;;2.60;;
69748;SDS011;57019;52.354;6.584;2022-07-29T12:47:30;7.77;;;2.77;;
69748;SDS011;57019;52.354;6.584;2022-07-29T12:50:14;7.22;;;2.45;;
69748;SDS011;57019;52.354;6.584;2022-07-29T12:52:42;9.43;;;2.78;;
69748;SDS011;57019;52.354;6.584;2022-07-29T12:55:08;9.63;;;2.33;;
69748;SDS011;57019;52.354;6.584;2022-07-29T13:00:12;6.78;;;2.22;;
69748;SDS011;57019;52.354;6.584;2022-07-29T13:02:39;8.05;;;2.28;;
69748;SDS011;57019;52.354;6.584;2022-07-29T13:05:07;8.88;;;2.70;;
69748;SDS011;57019;52.354;6.584;2022-07-29T13:07:34;7.33;;;2.40;;
69748;SDS011;57019;52.354;6.584;2022-07-29T13:10:11;7.63;;;2.38;;
69748;SDS011;57019;52.354;6.584;2022-07-29T13:12:39;6.97;;;2.35;;
69748;SDS011;57019;52.354;6.584;2022-07-29T13:15:24;6.28;;;2.17;;
69748;SDS011;57019;52.354;6.584;2022-07-29T13:17:50;7.83;;;2.40;;
69748;SDS011;57019;52.354;6.584;2022-07-29T13:20:15;8.43;;;2.60;;
69748;SDS011;57019;52.354;6.584;2022-07-29T13:22:41;8.23;;;2.67;;
69748;SDS011;57019;52.354;6.584;2022-07-29T13:25:09;7.38;;;2.28;;
69748;SDS011;57019;52.354;6.584;2022-07-29T13:27:36;8.77;;;2.58;;
69748;SDS011;57019;52.354;6.584;2022-07-29T13:30:07;6.95;;;2.20;;
69748;SDS011;57019;52.354;6.584;2022-07-29T13:32:34;7.73;;;2.50;;
69748;SDS011;57019;52.354;6.584;2022-07-29T13:35:08;7.18;;;2.60;;
69748;SDS011;57019;52.354;6.584;2022-07-29T13:37:34;8.02;;;2.22;;
69748;SDS011;57019;52.354;6.584;2022-07-29T13:40:03;6.57;;;2.20;;
69748;SDS011;57019;52.354;6.584;2022-07-29T13:42:29;8.87;;;2.10;;
69748;SDS011;57019;52.354;6.584;2022-07-29T13:44:56;6.50;;;2.10;;
69748;SDS011;57019;52.354;6.584;2022-07-29T13:47:21;7.57;;;2.60;;
69748;SDS011;57019;52.354;6.584;2022-07-29T13:49:47;9.55;;;2.60;;
69748;SDS011;57019;52.354;6.584;2022-07-29T13:52:13;10.07;;;2.33;;
69748;SDS011;57019;52.354;6.584;2022-07-29T13:54:39;6.33;;;2.30;;
69748;SDS011;57019;52.354;6.584;2022-07-29T13:57:04;6.27;;;2.20;;
69748;SDS011;57019;52.354;6.584;2022-07-29T13:59:30;8.53;;;2.30;;
69748;SDS011;57019;52.354;6.584;2022-07-29T14:01:55;6.97;;;2.30;;
69748;SDS011;57019;52.354;6.584;2022-07-29T14:04:21;6.73;;;2.30;;
69748;SDS011;57019;52.354;6.584;2022-07-29T14:06:48;6.50;;;2.15;;
69748;SDS011;57019;52.354;6.584;2022-07-29T14:09:13;7.07;;;2.40;;
69748;SDS011;57019;52.354;6.584;2022-07-29T14:11:39;7.30;;;2.23;;
69748;SDS011;57019;52.354;6.584;2022-07-29T14:14:04;6.10;;;2.10;;
69748;SDS011;57019;52.354;6.584;2022-07-29T14:16:30;6.80;;;2.33;;
69748;SDS011;57019;52.354;6.584;2022-07-29T14:18:55;7.32;;;2.30;;
69748;SDS011;57019;52.354;6.584;2022-07-29T14:21:20;6.87;;;2.37;;
69748;SDS011;57019;52.354;6.584;2022-07-29T14:23:46;6.20;;;2.27;;
69748;SDS011;57019;52.354;6.584;2022-07-29T14:26:11;7.63;;;2.50;;
69748;SDS011;57019;52.354;6.584;2022-07-29T14:28:36;8.10;;;2.27;;
69748;SDS011;57019;52.354;6.584;2022-07-29T14:31:01;7.77;;;2.30;;
69748;SDS011;57019;52.354;6.584;2022-07-29T14:33:27;7.57;;;2.40;;
69748;SDS011;57019;52.354;6.584;2022-07-29T14:35:52;8.03;;;2.20;;
69748;SDS011;57019;52.354;6.584;2022-07-29T14:38:17;7.68;;;2.40;;
69748;SDS011;57019;52.354;6.584;2022-07-29T14:40:43;8.97;;;2.73;;
69748;SDS011;57019;52.354;6.584;2022-07-29T14:43:08;6.20;;;2.20;;
69748;SDS011;57019;52.354;6.584;2022-07-29T14:45:34;7.93;;;2.10;;
69748;SDS011;57019;52.354;6.584;2022-07-29T14:47:59;6.57;;;2.37;;
69748;SDS011;57019;52.354;6.584;2022-07-29T14:50:25;8.57;;;2.30;;
69748;SDS011;57019;52.354;6.584;2022-07-29T14:52:51;5.55;;;2.00;;
69748;SDS011;57019;52.354;6.584;2022-07-29T14:55:17;6.57;;;2.20;;
69748;SDS011;57019;52.354;6.584;2022-07-29T14:57:42;7.27;;;2.50;;
69748;SDS011;57019;52.354;6.584;2022-07-29T15:00:08;8.40;;;2.27;;
69748;SDS011;57019;52.354;6.584;2022-07-29T15:02:35;6.90;;;2.50;;
69748;SDS011;57019;52.354;6.584;2022-07-29T15:05:00;8.53;;;2.40;;
69748;SDS011;57019;52.354;6.584;2022-07-29T15:07:26;7.18;;;2.40;;
69748;SDS011;57019;52.354;6.584;2022-07-29T15:09:51;7.53;;;2.30;;
69748;SDS011;57019;52.354;6.584;2022-07-29T15:12:16;6.70;;;2.17;;
69748;SDS011;57019;52.354;6.584;2022-07-29T15:14:42;7.00;;;2.50;;
69748;SDS011;57019;52.354;6.584;2022-07-29T15:17:07;7.77;;;2.30;;
69748;SDS011;57019;52.354;6.584;2022-07-29T15:19:33;8.38;;;2.10;;
69748;SDS011;57019;52.354;6.584;2022-07-29T15:21:59;7.13;;;2.20;;
69748;SDS011;57019;52.354;6.584;2022-07-29T15:24:24;7.15;;;2.08;;
69748;SDS011;57019;52.354;6.584;2022-07-29T15:26:50;11.00;;;2.20;;
69748;SDS011;57019;52.354;6.584;2022-07-29T15:29:15;6.20;;;2.17;;
69748;SDS011;57019;52.354;6.584;2022-07-29T15:31:41;6.63;;;2.10;;
69748;SDS011;57019;52.354;6.584;2022-07-29T15:34:06;7.90;;;2.10;;
69748;SDS011;57019;52.354;6.584;2022-07-29T15:36:32;7.43;;;1.90;;
69748;SDS011;57019;52.354;6.584;2022-07-29T15:38:57;8.13;;;2.17;;
69748;SDS011;57019;52.354;6.584;2022-07-29T15:41:22;7.15;;;2.00;;
69748;SDS011;57019;52.354;6.584;2022-07-29T15:43:48;7.67;;;2.03;;
69748;SDS011;57019;52.354;6.584;2022-07-29T15:46:15;6.97;;;2.00;;
69748;SDS011;57019;52.354;6.584;2022-07-29T15:49:02;6.18;;;2.10;;
69748;SDS011;57019;52.354;6.584;2022-07-29T15:51:29;7.47;;;2.20;;